createdAt,value
2018-08-30T00:00:18.450Z,66.58
2018-08-30T00:01:18.191Z,65.97
2018-08-30T00:02:18.190Z,67.8
2018-08-30T00:03:18.446Z,68.76
2018-08-30T00:04:18.446Z,68.19
2018-08-30T00:05:18.443Z,69.24
2018-08-30T00:06:18.439Z,68.86
2018-08-30T00:07:18.438Z,70.78
2018-08-30T00:08:18.441Z,69.63
2018-08-30T00:09:18.433Z,70.3
2018-08-30T00:10:18.431Z,70.11
2018-08-30T00:11:18.433Z,71.26
2018-08-30T00:12:18.426Z,71.84
2018-08-30T00:13:18.426Z,73
2018-08-30T00:14:18.167Z,75.69
2018-08-30T00:15:18.422Z,76.07
2018-08-30T00:16:18.422Z,81.46
2018-08-30T00:17:18.422Z,85.02
2018-08-30T00:18:18.414Z,85.78
2018-08-30T00:19:18.413Z,87.86
2018-08-30T00:20:18.155Z,89.06
2018-08-30T00:21:18.157Z,92.19
2018-08-30T00:22:18.408Z,92.96
2018-08-30T00:23:18.408Z,93.24
2018-08-30T00:24:18.403Z,94.11
2018-08-30T00:25:18.406Z,99.01
2018-08-30T00:26:18.399Z,99.99
2018-08-30T00:27:18.400Z,99.99
2018-08-30T00:28:18.140Z,99.99
2018-08-30T00:29:18.393Z,99.99
2018-08-30T00:30:18.393Z,99.99
2018-08-30T00:31:18.391Z,99.99
2018-08-30T00:32:18.392Z,99.99
2018-08-30T00:33:18.385Z,99.99
2018-08-30T00:34:18.382Z,99.99
2018-08-30T00:35:18.383Z,99.99
2018-08-30T00:36:18.381Z,99.99
2018-08-30T00:37:18.375Z,99.99
2018-08-30T00:38:18.371Z,99.99
2018-08-30T00:39:18.114Z,99.99
2018-08-30T00:40:18.374Z,99.99
2018-08-30T00:41:18.479Z,99.99
2018-08-30T00:42:18.368Z,99.99
2018-08-30T00:43:18.365Z,99.99
2018-08-30T00:44:18.360Z,99.99
2018-08-30T00:45:18.358Z,99.99
2018-08-30T00:46:18.353Z,99.99
2018-08-30T00:47:18.352Z,99.99
2018-08-30T00:48:18.346Z,99.99
2018-08-30T00:49:18.353Z,99.99
2018-08-30T00:50:18.346Z,99.99
2018-08-30T00:51:18.341Z,99.99
2018-08-30T00:52:18.339Z,99.99
2018-08-30T00:53:18.337Z,99.99
2018-08-30T00:54:18.335Z,99.99
2018-08-30T00:55:18.074Z,99.99
2018-08-30T00:56:18.326Z,99.99
2018-08-30T00:57:18.069Z,99.99
2018-08-30T00:58:18.326Z,99.99
2018-08-30T00:59:18.326Z,99.99
2018-08-30T01:00:18.325Z,99.1
2018-08-30T01:01:18.320Z,96.8
2018-08-30T01:02:18.315Z,94.59
2018-08-30T01:03:18.310Z,90.84
2018-08-30T01:04:18.309Z,90.56
2018-08-30T01:05:18.050Z,88.93
2018-08-30T01:06:18.302Z,87.82
2018-08-30T01:07:18.299Z,85.75
2018-08-30T01:08:18.298Z,78.99
2018-08-30T01:09:18.296Z,76.82
2018-08-30T01:10:18.295Z,74.39
2018-08-30T01:11:18.286Z,69.59
2018-08-30T01:12:18.286Z,64.31
2018-08-30T01:13:18.288Z,62.48
2018-08-30T01:14:18.284Z,58.64
2018-08-30T01:15:18.276Z,57.97
2018-08-30T01:16:18.282Z,56.63
2018-08-30T01:17:18.015Z,55.96
2018-08-30T01:18:18.268Z,53.17
2018-08-30T01:19:18.010Z,52.4
2018-08-30T01:20:18.266Z,53.17
2018-08-30T01:21:18.001Z,50.94
2018-08-30T01:22:18.255Z,51.45
2018-08-30T01:23:18.253Z,49.82
2018-08-30T01:24:18.252Z,47.1
2018-08-30T01:25:18.246Z,46.36
2018-08-30T01:26:18.245Z,48.07
2018-08-30T01:27:18.246Z,49.91
2018-08-30T01:28:17.982Z,51.06
2018-08-30T01:29:18.234Z,51.9
2018-08-30T01:30:18.231Z,51.16
2018-08-30T01:31:18.232Z,51.83
2018-08-30T01:32:18.225Z,54.42
2018-08-30T01:33:18.223Z,57.78
2018-08-30T01:34:18.222Z,57.68
2018-08-30T01:35:17.959Z,56.34
2018-08-30T01:36:18.214Z,57.59
2018-08-30T01:37:18.209Z,58.26
2018-08-30T01:38:18.207Z,58.84
2018-08-30T01:39:18.202Z,59.8
2018-08-30T01:40:18.198Z,60.95
2018-08-30T01:41:18.198Z,61.43
2018-08-30T01:42:18.194Z,62.39
2018-08-30T01:43:18.198Z,62.19
2018-08-30T01:44:17.929Z,61.91
2018-08-30T01:45:18.185Z,61.62
2018-08-30T01:46:18.180Z,61.33
2018-08-30T01:47:18.178Z,61.05
2018-08-30T01:48:18.180Z,60.66
2018-08-30T01:49:18.171Z,60.66
2018-08-30T01:50:18.168Z,59.89
2018-08-30T01:51:18.163Z,58.94
2018-08-30T01:52:18.161Z,59.32
2018-08-30T01:53:18.161Z,58.94
2018-08-30T01:54:18.153Z,58.84
2018-08-30T01:55:18.151Z,58.64
2018-08-30T01:56:18.151Z,57.3
2018-08-30T01:57:17.891Z,54.42
2018-08-30T01:58:17.884Z,53.94
2018-08-30T01:59:18.144Z,54.23
2018-08-30T02:00:18.135Z,52.69
2018-08-30T02:01:18.133Z,49.05
2018-08-30T02:02:18.132Z,48.57
2018-08-30T02:03:18.125Z,47.03
2018-08-30T02:04:18.122Z,44.24
2018-08-30T02:05:18.118Z,44.44
2018-08-30T02:06:18.116Z,43
2018-08-30T02:07:18.113Z,42.13
2018-08-30T02:08:18.110Z,37.91
2018-08-30T02:09:17.849Z,33.31
2018-08-30T02:10:18.101Z,29.85
2018-08-30T02:11:18.099Z,26.39
2018-08-30T02:12:17.842Z,24.66
2018-08-30T02:13:18.093Z,20.15
2018-08-30T02:14:18.090Z,18.71
2018-08-30T02:15:18.091Z,16.98
2018-08-30T02:16:18.083Z,15.64
2018-08-30T02:17:18.083Z,13.24
2018-08-30T02:18:18.077Z,11.7
2018-08-30T02:19:18.078Z,10.55
2018-08-30T02:20:18.073Z,8.25
2018-08-30T02:21:18.072Z,7.67
2018-08-30T02:22:18.067Z,5.27
2018-08-30T02:23:18.064Z,4.03
2018-08-30T02:24:17.802Z,2.59
2018-08-30T02:25:18.057Z,0.67
2018-08-30T02:26:18.054Z,0
2018-08-30T02:27:18.050Z,0
2018-08-30T02:28:18.042Z,0
2018-08-30T02:29:18.046Z,0
2018-08-30T02:30:18.038Z,0
2018-08-30T02:31:18.037Z,0
2018-08-30T02:32:18.039Z,0
2018-08-30T02:33:18.030Z,0
2018-08-30T02:34:17.770Z,0
2018-08-30T02:35:18.018Z,0
2018-08-30T02:36:18.021Z,0
2018-08-30T02:37:18.011Z,0
2018-08-30T02:38:17.755Z,0
2018-08-30T02:39:17.755Z,0
2018-08-30T02:40:17.746Z,0
2018-08-30T02:41:17.777Z,0
2018-08-30T02:42:17.994Z,0
2018-08-30T02:43:17.994Z,0
2018-08-30T02:44:17.991Z,0
2018-08-30T02:45:17.725Z,0
2018-08-30T02:46:18.028Z,0
2018-08-30T02:47:17.977Z,0
2018-08-30T02:48:17.973Z,0
2018-08-30T02:49:17.973Z,0
2018-08-30T02:50:17.966Z,0
2018-08-30T02:51:17.962Z,0
2018-08-30T02:52:18.010Z,0
2018-08-30T02:53:17.959Z,0
2018-08-30T02:54:17.950Z,0
2018-08-30T02:55:17.951Z,0
2018-08-30T02:56:17.940Z,0
2018-08-30T02:57:17.939Z,0
2018-08-30T02:58:17.933Z,0
2018-08-30T02:59:17.931Z,0
2018-08-30T03:00:17.676Z,0
2018-08-30T03:01:17.923Z,0
2018-08-30T03:02:17.663Z,0
2018-08-30T03:03:17.660Z,0
2018-08-30T03:04:17.912Z,0
2018-08-30T03:05:17.909Z,0
2018-08-30T03:06:17.911Z,0
2018-08-30T03:07:17.904Z,0
2018-08-30T03:08:17.898Z,0
2018-08-30T03:09:17.904Z,0
2018-08-30T03:10:17.894Z,0
2018-08-30T03:11:17.885Z,0
2018-08-30T03:12:17.887Z,0
2018-08-30T03:13:17.880Z,0
2018-08-30T03:14:17.874Z,0
2018-08-30T03:15:17.873Z,0
2018-08-30T03:16:17.869Z,0
2018-08-30T03:17:17.865Z,0
2018-08-30T03:18:17.864Z,0
2018-08-30T03:19:17.864Z,0
2018-08-30T03:20:17.855Z,0
2018-08-30T03:21:17.847Z,0
2018-08-30T03:22:17.846Z,0
2018-08-30T03:23:17.859Z,0
2018-08-30T03:24:17.836Z,0
2018-08-30T03:25:17.843Z,0
2018-08-30T03:26:17.831Z,0
2018-08-30T03:27:17.574Z,0
2018-08-30T03:28:17.820Z,0
2018-08-30T03:29:17.816Z,0
2018-08-30T03:30:17.970Z,0
2018-08-30T03:31:17.817Z,0
2018-08-30T03:32:17.812Z,0
2018-08-30T03:33:17.803Z,0
2018-08-30T03:34:17.798Z,0
2018-08-30T03:35:17.536Z,0
2018-08-30T03:36:17.790Z,0
2018-08-30T03:37:17.788Z,0
2018-08-30T03:38:17.788Z,0
2018-08-30T03:39:17.777Z,0
2018-08-30T03:40:17.776Z,0
2018-08-30T03:41:17.770Z,0
2018-08-30T03:42:17.770Z,0
2018-08-30T03:43:17.768Z,0
2018-08-30T03:44:17.501Z,0
2018-08-30T03:45:17.755Z,0
2018-08-30T03:46:17.748Z,0
2018-08-30T03:47:17.743Z,0
2018-08-30T03:48:17.740Z,0
2018-08-30T03:49:17.740Z,0
2018-08-30T03:50:17.738Z,0
2018-08-30T03:51:17.730Z,0
2018-08-30T03:52:17.724Z,0
2018-08-30T03:53:17.723Z,0
2018-08-30T03:54:17.718Z,0
2018-08-30T03:55:17.930Z,0
2018-08-30T03:56:17.719Z,0
2018-08-30T03:57:17.705Z,0
2018-08-30T03:58:17.444Z,0
2018-08-30T03:59:17.700Z,0
2018-08-30T04:00:17.694Z,0
2018-08-30T04:01:17.687Z,0
2018-08-30T04:02:17.739Z,0
2018-08-30T04:03:17.681Z,0
2018-08-30T04:04:17.905Z,0
2018-08-30T04:05:17.682Z,0
2018-08-30T04:06:17.673Z,0
2018-08-30T04:07:17.663Z,0
2018-08-30T04:08:17.663Z,0
2018-08-30T04:09:17.655Z,0
2018-08-30T04:10:17.649Z,0
2018-08-30T04:11:17.648Z,0
2018-08-30T04:12:17.642Z,0
2018-08-30T04:13:17.639Z,0
2018-08-30T04:14:17.378Z,0
2018-08-30T04:15:17.632Z,0
2018-08-30T04:16:17.624Z,0
2018-08-30T04:17:17.629Z,0
2018-08-30T04:18:17.616Z,0
2018-08-30T04:19:17.613Z,0
2018-08-30T04:20:17.609Z,0
2018-08-30T04:21:17.346Z,0
2018-08-30T04:22:17.606Z,0
2018-08-30T04:23:17.598Z,0
2018-08-30T04:24:17.590Z,0
2018-08-30T04:25:17.589Z,0
2018-08-30T04:26:17.325Z,0
2018-08-30T04:27:17.579Z,0
2018-08-30T04:28:17.318Z,0
2018-08-30T04:29:17.313Z,0
2018-08-30T04:30:17.566Z,0
2018-08-30T04:31:17.559Z,0
2018-08-30T04:32:17.570Z,0
2018-08-30T04:33:17.552Z,0
2018-08-30T04:34:17.556Z,0
2018-08-30T04:35:17.545Z,0
2018-08-30T04:36:17.281Z,0
2018-08-30T04:37:17.538Z,0
2018-08-30T04:38:17.534Z,0
2018-08-30T04:39:17.531Z,0
2018-08-30T04:40:17.525Z,0
2018-08-30T04:41:17.520Z,0
2018-08-30T04:42:17.596Z,0
2018-08-30T04:43:17.512Z,0
2018-08-30T04:44:17.250Z,0
2018-08-30T04:45:17.509Z,0
2018-08-30T04:46:17.240Z,0
2018-08-30T04:47:17.495Z,0
2018-08-30T04:48:17.237Z,0
2018-08-30T04:49:17.237Z,0
2018-08-30T04:50:17.760Z,0
2018-08-30T04:51:17.476Z,0
2018-08-30T04:52:17.476Z,0
2018-08-30T04:53:17.469Z,0
2018-08-30T04:54:17.463Z,0
2018-08-30T04:55:17.460Z,0
2018-08-30T04:56:17.456Z,0
2018-08-30T04:57:17.193Z,0
2018-08-30T04:58:17.448Z,0
2018-08-30T04:59:17.444Z,0
2018-08-30T05:00:17.439Z,0
2018-08-30T05:01:17.436Z,0
2018-08-30T05:02:17.430Z,0
2018-08-30T05:03:17.426Z,0
2018-08-30T05:04:17.421Z,0
2018-08-30T05:05:17.419Z,0
2018-08-30T05:06:17.165Z,0
2018-08-30T05:07:17.413Z,0
2018-08-30T05:08:17.405Z,0
2018-08-30T05:09:17.408Z,0
2018-08-30T05:10:17.395Z,0
2018-08-30T05:11:17.136Z,0
2018-08-30T05:12:17.392Z,0
2018-08-30T05:13:17.127Z,0
2018-08-30T05:14:17.380Z,0
2018-08-30T05:15:17.387Z,0
2018-08-30T05:16:17.372Z,0
2018-08-30T05:17:17.371Z,0
2018-08-30T05:18:17.363Z,0
2018-08-30T05:19:17.356Z,0
2018-08-30T05:20:17.353Z,0
2018-08-30T05:21:17.353Z,0
2018-08-30T05:22:17.346Z,0
2018-08-30T05:23:17.345Z,0
2018-08-30T05:24:17.338Z,0
2018-08-30T05:25:17.336Z,0
2018-08-30T05:26:17.331Z,0
2018-08-30T05:27:17.070Z,0
2018-08-30T05:28:17.331Z,0
2018-08-30T05:29:17.319Z,0
2018-08-30T05:30:17.314Z,0
2018-08-30T05:31:17.325Z,0
2018-08-30T05:32:17.052Z,0
2018-08-30T05:33:17.301Z,0
2018-08-30T05:34:17.039Z,0
2018-08-30T05:35:17.296Z,0
2018-08-30T05:36:17.293Z,0
2018-08-30T05:37:17.028Z,0
2018-08-30T05:38:17.026Z,0
2018-08-30T05:39:17.277Z,0
2018-08-30T05:40:17.017Z,0
2018-08-30T05:41:17.271Z,0
2018-08-30T05:42:17.265Z,0
2018-08-30T05:43:17.264Z,0
2018-08-30T05:44:17.258Z,0
2018-08-30T05:45:17.255Z,0
2018-08-30T05:46:16.995Z,0
2018-08-30T05:47:17.245Z,0
2018-08-30T05:48:17.246Z,0
2018-08-30T05:49:16.980Z,0
2018-08-30T05:50:17.236Z,0
2018-08-30T05:51:17.233Z,0
2018-08-30T05:52:17.226Z,0
2018-08-30T05:53:17.223Z,0
2018-08-30T05:54:17.265Z,0
2018-08-30T05:55:17.214Z,0
2018-08-30T05:56:17.214Z,0
2018-08-30T05:57:17.214Z,0
2018-08-30T05:58:17.204Z,0
2018-08-30T05:59:17.206Z,0
2018-08-30T06:00:16.937Z,0
2018-08-30T06:01:17.197Z,0
2018-08-30T06:02:17.190Z,0
2018-08-30T06:03:17.180Z,0
2018-08-30T06:04:17.177Z,0
2018-08-30T06:05:17.186Z,0
2018-08-30T06:06:17.172Z,0
2018-08-30T06:07:17.299Z,0
2018-08-30T06:08:17.240Z,0
2018-08-30T06:09:16.901Z,0
2018-08-30T06:10:17.154Z,0
2018-08-30T06:11:16.895Z,0
2018-08-30T06:12:17.144Z,0
2018-08-30T06:13:17.146Z,0
2018-08-30T06:14:17.142Z,0
2018-08-30T06:15:17.137Z,0
2018-08-30T06:16:17.130Z,0
2018-08-30T06:17:17.137Z,0
2018-08-30T06:18:17.119Z,0
2018-08-30T06:19:17.119Z,0
2018-08-30T06:20:17.114Z,0
2018-08-30T06:21:17.117Z,0
2018-08-30T06:22:17.106Z,0
2018-08-30T06:23:17.104Z,0
2018-08-30T06:24:17.096Z,0
2018-08-30T06:25:17.099Z,0
2018-08-30T06:26:17.094Z,0
2018-08-30T06:27:17.087Z,0
2018-08-30T06:28:17.081Z,0
2018-08-30T06:29:17.191Z,0
2018-08-30T06:30:17.075Z,0
2018-08-30T06:31:17.079Z,0
2018-08-30T06:32:16.810Z,0
2018-08-30T06:33:17.064Z,0
2018-08-30T06:34:17.063Z,0
2018-08-30T06:35:17.057Z,0
2018-08-30T06:36:17.048Z,0
2018-08-30T06:37:17.048Z,0
2018-08-30T06:38:16.786Z,0
2018-08-30T06:39:17.040Z,0
2018-08-30T06:40:17.031Z,0
2018-08-30T06:41:16.773Z,0
2018-08-30T06:42:16.768Z,0
2018-08-30T06:43:17.024Z,0
2018-08-30T06:44:16.760Z,0
2018-08-30T06:45:17.049Z,0
2018-08-30T06:46:17.018Z,0
2018-08-30T06:47:17.004Z,0
2018-08-30T06:48:17.003Z,0
2018-08-30T06:49:16.996Z,0
2018-08-30T06:50:16.994Z,0
2018-08-30T06:51:16.733Z,0
2018-08-30T06:52:16.988Z,0
2018-08-30T06:53:16.985Z,0
2018-08-30T06:54:16.976Z,0
2018-08-30T06:55:16.970Z,0
2018-08-30T06:56:16.771Z,0
2018-08-30T06:57:16.967Z,0
2018-08-30T06:58:16.998Z,0
2018-08-30T06:59:16.954Z,0
2018-08-30T07:00:16.949Z,0
2018-08-30T07:01:16.688Z,0
2018-08-30T07:02:16.945Z,0
2018-08-30T07:03:16.938Z,0
2018-08-30T07:04:17.113Z,0
2018-08-30T07:05:16.929Z,0
2018-08-30T07:06:16.928Z,0
2018-08-30T07:07:16.917Z,0
2018-08-30T07:08:17.191Z,0
2018-08-30T07:09:16.964Z,0
2018-08-30T07:10:16.907Z,0
2018-08-30T07:11:16.900Z,0
2018-08-30T07:12:16.896Z,0
2018-08-30T07:13:16.891Z,0
2018-08-30T07:14:16.893Z,0
2018-08-30T07:15:16.627Z,0
2018-08-30T07:16:16.880Z,0
2018-08-30T07:17:16.876Z,0
2018-08-30T07:18:16.613Z,0
2018-08-30T07:19:16.606Z,0
2018-08-30T07:20:16.858Z,0
2018-08-30T07:21:17.042Z,0
2018-08-30T07:22:16.851Z,0
2018-08-30T07:23:16.590Z,0
2018-08-30T07:24:16.891Z,0
2018-08-30T07:25:16.837Z,0
2018-08-30T07:26:16.577Z,0
2018-08-30T07:27:16.575Z,0
2018-08-30T07:28:16.829Z,0
2018-08-30T07:29:16.820Z,0
2018-08-30T07:30:16.812Z,0
2018-08-30T07:31:16.811Z,0
2018-08-30T07:32:16.804Z,0
2018-08-30T07:33:16.800Z,0
2018-08-30T07:34:16.943Z,0
2018-08-30T07:35:16.794Z,0
2018-08-30T07:36:16.793Z,0
2018-08-30T07:37:16.783Z,0
2018-08-30T07:38:16.783Z,0
2018-08-30T07:39:16.775Z,0
2018-08-30T07:40:16.777Z,0
2018-08-30T07:41:16.793Z,0
2018-08-30T07:42:16.764Z,0
2018-08-30T07:43:16.758Z,0
2018-08-30T07:44:16.952Z,0
2018-08-30T07:45:16.749Z,0
2018-08-30T07:46:16.743Z,0
2018-08-30T07:47:16.915Z,0
2018-08-30T07:48:16.736Z,0
2018-08-30T07:49:16.734Z,0
2018-08-30T07:50:16.729Z,0
2018-08-30T07:51:16.731Z,0
2018-08-30T07:52:16.719Z,0
2018-08-30T07:53:16.712Z,0
2018-08-30T07:54:16.709Z,0
2018-08-30T07:55:16.447Z,0
2018-08-30T07:56:16.697Z,0
2018-08-30T07:57:16.778Z,0
2018-08-30T07:58:16.690Z,0
2018-08-30T07:59:16.685Z,0
2018-08-30T08:00:16.683Z,0
2018-08-30T08:01:16.420Z,0
2018-08-30T08:02:16.673Z,0
2018-08-30T08:03:16.668Z,0
2018-08-30T08:04:16.407Z,0
2018-08-30T08:05:16.658Z,0
2018-08-30T08:06:16.654Z,0
2018-08-30T08:07:16.841Z,0
2018-08-30T08:08:16.658Z,0
2018-08-30T08:09:16.639Z,0
2018-08-30T08:10:16.381Z,1.43
2018-08-30T08:11:16.374Z,1.05
2018-08-30T08:12:16.628Z,0.57
2018-08-30T08:13:16.621Z,0
2018-08-30T08:14:16.362Z,0
2018-08-30T08:15:16.613Z,0
2018-08-30T08:16:16.609Z,4.11
2018-08-30T08:17:16.604Z,4.11
2018-08-30T08:18:16.342Z,4.5
2018-08-30T08:19:16.760Z,3.92
2018-08-30T08:20:16.590Z,1.91
2018-08-30T08:21:16.585Z,2.01
2018-08-30T08:22:16.581Z,7.56
2018-08-30T08:23:16.583Z,10.06
2018-08-30T08:24:16.573Z,6.99
2018-08-30T08:25:16.637Z,3.92
2018-08-30T08:26:16.305Z,1.05
2018-08-30T08:27:16.560Z,0
2018-08-30T08:28:16.555Z,0
2018-08-30T08:29:16.554Z,0
2018-08-30T08:30:16.286Z,0
2018-08-30T08:31:16.634Z,0
2018-08-30T08:32:16.541Z,0
2018-08-30T08:33:16.536Z,0
2018-08-30T08:34:16.528Z,0
2018-08-30T08:35:16.522Z,0
2018-08-30T08:36:16.516Z,0
2018-08-30T08:37:16.513Z,0
2018-08-30T08:38:16.505Z,0
2018-08-30T08:39:16.503Z,0
2018-08-30T08:40:16.499Z,0
2018-08-30T08:41:16.494Z,0
2018-08-30T08:42:16.488Z,0
2018-08-30T08:43:16.484Z,0
2018-08-30T08:44:16.478Z,0
2018-08-30T08:45:16.476Z,0
2018-08-30T08:46:16.214Z,0
2018-08-30T08:47:16.210Z,0
2018-08-30T08:48:16.463Z,0
2018-08-30T08:49:16.456Z,0
2018-08-30T08:50:16.452Z,0
2018-08-30T08:51:16.281Z,0
2018-08-30T08:52:16.445Z,0
2018-08-30T08:53:16.439Z,0
2018-08-30T08:54:16.435Z,0
2018-08-30T08:55:16.430Z,0
2018-08-30T08:56:16.429Z,0
2018-08-30T08:57:16.423Z,0.48
2018-08-30T08:58:16.159Z,0.29
2018-08-30T08:59:16.287Z,0.96
2018-08-30T09:00:16.409Z,5.36
2018-08-30T09:01:16.183Z,12.36
2018-08-30T09:02:16.149Z,14.95
2018-08-30T09:03:16.401Z,10.44
2018-08-30T09:04:16.394Z,6.7
2018-08-30T09:05:16.388Z,11.01
2018-08-30T09:06:16.383Z,11.59
2018-08-30T09:07:16.704Z,8.81
2018-08-30T09:08:16.371Z,8.14
2018-08-30T09:09:16.376Z,7.09
2018-08-30T09:10:16.364Z,6.23
2018-08-30T09:11:16.361Z,4.21
2018-08-30T09:12:16.354Z,3.25
2018-08-30T09:13:16.095Z,6.13
2018-08-30T09:14:16.368Z,5.65
2018-08-30T09:15:16.347Z,10.93
2018-08-30T09:16:16.338Z,12.74
2018-08-30T09:17:16.333Z,14.09
2018-08-30T09:18:16.389Z,14.56
2018-08-30T09:19:16.325Z,14.18
2018-08-30T09:20:16.324Z,16.48
2018-08-30T09:21:16.317Z,18.21
2018-08-30T09:22:16.314Z,21.28
2018-08-30T09:23:16.570Z,22.33
2018-08-30T09:24:16.309Z,21.18
2018-08-30T09:25:16.306Z,18.69
2018-08-30T09:26:16.300Z,18.21
2018-08-30T09:27:16.564Z,16.86
2018-08-30T09:28:16.291Z,17.44
2018-08-30T09:29:16.291Z,20.79
2018-08-30T09:30:16.292Z,23.57
2018-08-30T09:31:16.280Z,21.37
2018-08-30T09:32:16.273Z,21.75
2018-08-30T09:33:16.270Z,20.98
2018-08-30T09:34:16.268Z,18.11
2018-08-30T09:35:16.266Z,14.09
2018-08-30T09:36:16.260Z,15.42
2018-08-30T09:37:15.999Z,15.43
2018-08-30T09:38:16.251Z,15.14
2018-08-30T09:39:16.246Z,12.84
2018-08-30T09:40:15.992Z,13.51
2018-08-30T09:41:16.240Z,16.19
2018-08-30T09:42:15.978Z,17.15
2018-08-30T09:43:16.231Z,20.41
2018-08-30T09:44:16.228Z,23.57
2018-08-30T09:45:16.229Z,28.17
2018-08-30T09:46:16.224Z,27.03
2018-08-30T09:47:16.215Z,26.54
2018-08-30T09:48:16.211Z,26.45
2018-08-30T09:49:16.382Z,41.9
2018-08-30T09:50:16.201Z,43.82
2018-08-30T09:51:16.200Z,39.48
2018-08-30T09:52:15.938Z,38.14
2018-08-30T09:53:16.193Z,38.34
2018-08-30T09:54:16.187Z,35.36
2018-08-30T09:55:16.189Z,39.39
2018-08-30T09:56:16.177Z,31.82
2018-08-30T09:57:16.723Z,34.5
2018-08-30T09:58:16.173Z,35.55
2018-08-30T09:59:16.175Z,30.67
2018-08-30T10:00:16.167Z,29.05
2018-08-30T10:01:16.159Z,33.47
2018-08-30T10:02:16.158Z,37.4
2018-08-30T10:03:16.154Z,40.27
2018-08-30T10:04:16.152Z,38.35
2018-08-30T10:05:16.276Z,35.28
2018-08-30T10:06:15.886Z,33.37
2018-08-30T10:07:16.142Z,28.48
2018-08-30T10:08:16.136Z,26.27
2018-08-30T10:09:16.130Z,19.94
2018-08-30T10:10:16.128Z,29.72
2018-08-30T10:11:16.128Z,33.75
2018-08-30T10:12:16.119Z,34.81
2018-08-30T10:13:16.116Z,37.87
2018-08-30T10:14:16.112Z,44.87
2018-08-30T10:15:16.108Z,43.34
2018-08-30T10:16:16.105Z,45.07
2018-08-30T10:17:16.104Z,45.45
2018-08-30T10:18:15.841Z,43.34
2018-08-30T10:19:15.836Z,40.17
2018-08-30T10:20:15.832Z,41.8
2018-08-30T10:21:15.830Z,35.48
2018-08-30T10:22:16.083Z,31.92
2018-08-30T10:23:16.085Z,33.25
2018-08-30T10:24:16.078Z,30.19
2018-08-30T10:25:16.210Z,29.61
2018-08-30T10:26:15.810Z,27.6
2018-08-30T10:27:15.807Z,24.34
2018-08-30T10:28:16.063Z,22.42
2018-08-30T10:29:15.800Z,22.32
2018-08-30T10:30:16.053Z,20.4
2018-08-30T10:31:16.047Z,19.25
2018-08-30T10:32:16.044Z,17.53
2018-08-30T10:33:15.790Z,14.08
2018-08-30T10:34:15.779Z,10.35
2018-08-30T10:35:16.049Z,7.95
2018-08-30T10:36:16.030Z,11.49
2018-08-30T10:37:16.027Z,8.9
2018-08-30T10:38:16.020Z,4.6
2018-08-30T10:39:16.015Z,4.02
2018-08-30T10:40:16.009Z,0
2018-08-30T10:41:16.008Z,0
2018-08-30T10:42:16.001Z,0
2018-08-30T10:43:16.038Z,0
2018-08-30T10:44:15.734Z,0
2018-08-30T10:45:15.990Z,0
2018-08-30T10:46:15.983Z,0
2018-08-30T10:47:15.977Z,0
2018-08-30T10:48:15.971Z,0
2018-08-30T10:49:15.970Z,0
2018-08-30T10:50:15.972Z,0
2018-08-30T10:51:15.700Z,0
2018-08-30T10:52:15.951Z,0
2018-08-30T10:53:15.948Z,0
2018-08-30T10:54:15.953Z,0
2018-08-30T10:55:15.680Z,0
2018-08-30T10:56:16.052Z,0
2018-08-30T10:57:15.668Z,0
2018-08-30T10:58:15.986Z,0
2018-08-30T10:59:15.916Z,0
2018-08-30T11:00:15.914Z,0
2018-08-30T11:01:15.906Z,0
2018-08-30T11:02:15.906Z,0
2018-08-30T11:03:15.638Z,0
2018-08-30T11:04:15.980Z,0
2018-08-30T11:05:15.629Z,0
2018-08-30T11:06:16.483Z,0
2018-08-30T11:15:04.660Z,3.92
2018-08-30T11:16:04.913Z,9.87
2018-08-30T11:17:04.915Z,8.43
2018-08-30T11:18:04.910Z,12.74
2018-08-30T11:19:04.895Z,24.54
2018-08-30T11:20:04.637Z,33.16
2018-08-30T11:21:04.635Z,30.18
2018-08-30T11:22:04.890Z,23.57
2018-08-30T11:23:04.632Z,17.91
2018-08-30T11:24:04.881Z,14.56
2018-08-30T11:25:04.618Z,18.1
2018-08-30T11:26:04.878Z,19.82
2018-08-30T11:27:04.872Z,20.59
2018-08-30T11:28:04.605Z,17.05
2018-08-30T11:29:04.602Z,16.38
2018-08-30T11:30:04.855Z,15.13
2018-08-30T11:31:04.851Z,12.16
2018-08-30T11:32:04.845Z,15.41
2018-08-30T11:33:04.840Z,18.19
2018-08-30T11:34:04.576Z,14.17
2018-08-30T11:35:04.574Z,9.28
2018-08-30T11:36:04.830Z,5.26
2018-08-30T11:37:04.565Z,3.83
2018-08-30T11:38:04.817Z,4.11
2018-08-30T11:39:04.810Z,5.74
2018-08-30T11:40:04.805Z,11.96
2018-08-30T11:41:04.545Z,13.21
2018-08-30T11:42:04.540Z,12.84
2018-08-30T11:43:04.792Z,11.01
2018-08-30T11:44:04.532Z,8.04
2018-08-30T11:45:04.786Z,8.23
2018-08-30T11:46:04.779Z,10.82
2018-08-30T11:47:04.773Z,19.64
2018-08-30T11:48:04.769Z,15.41
2018-08-30T11:49:04.765Z,11.96
2018-08-30T11:50:04.507Z,12.26
2018-08-30T11:51:04.561Z,12.73
2018-08-30T11:52:04.784Z,11.1
2018-08-30T11:53:04.752Z,13.31
2018-08-30T11:54:04.761Z,11.77
2018-08-30T11:55:04.480Z,8.8
2018-08-30T11:56:04.761Z,6.98
2018-08-30T11:57:04.726Z,6.02
2018-08-30T11:58:04.463Z,2.01
2018-08-30T11:59:04.462Z,0
2018-08-30T12:00:04.454Z,0
2018-08-30T12:01:04.493Z,1.53
2018-08-30T12:02:04.704Z,0
2018-08-30T12:03:04.437Z,0
2018-08-30T12:04:04.697Z,0
2018-08-30T12:05:04.428Z,0
2018-08-30T12:06:04.680Z,0
2018-08-30T12:07:04.918Z,0
2018-08-30T12:08:04.863Z,2.39
2018-08-30T12:09:04.663Z,2.48
2018-08-30T12:10:04.402Z,1.91
2018-08-30T12:11:05.090Z,4.11
2018-08-30T12:12:04.391Z,6.79
2018-08-30T12:13:04.649Z,7.84
2018-08-30T12:14:04.379Z,10.9
2018-08-30T12:15:04.635Z,9.56
2018-08-30T12:16:04.632Z,10.52
2018-08-30T12:17:04.626Z,13.01
2018-08-30T12:18:04.614Z,14.45
2018-08-30T12:19:04.357Z,17.8
2018-08-30T12:20:04.604Z,15.12
2018-08-30T12:21:04.622Z,13.48
2018-08-30T12:22:04.336Z,12.82
2018-08-30T12:23:04.328Z,12.43
2018-08-30T12:24:04.581Z,13.3
2018-08-30T12:25:04.319Z,14.06
2018-08-30T12:26:04.582Z,13.2
2018-08-30T12:27:04.602Z,14.63
2018-08-30T12:28:04.309Z,13.39
2018-08-30T12:29:04.331Z,10.52
2018-08-30T12:30:04.750Z,8.8
2018-08-30T12:31:04.735Z,13.29
2018-08-30T12:32:04.607Z,20.95
2018-08-30T12:33:04.535Z,12.24
2018-08-30T12:34:04.786Z,13.1
2018-08-30T12:35:04.848Z,11.57
2018-08-30T12:36:04.359Z,10.14
2018-08-30T12:37:04.529Z,13.48
2018-08-30T12:38:04.535Z,12.53
2018-08-30T12:39:04.298Z,10.61
2018-08-30T12:40:04.768Z,11.38
2018-08-30T12:41:04.248Z,12.43
2018-08-30T12:42:04.271Z,12.82
2018-08-30T12:43:04.831Z,16.74
2018-08-30T12:44:04.629Z,25.45
2018-08-30T12:45:04.223Z,30.24
2018-08-30T12:46:04.246Z,29.57
2018-08-30T12:47:04.506Z,28.9
2018-08-30T12:48:04.504Z,28.33
2018-08-30T12:49:04.495Z,28.23
2018-08-30T12:50:04.796Z,25.35
2018-08-30T12:51:04.796Z,24.59
2018-08-30T12:52:04.728Z,24.1
2018-08-30T12:53:04.172Z,24.21
2018-08-30T12:54:04.822Z,23.63
2018-08-30T12:55:05.039Z,21.81
2018-08-30T12:56:04.586Z,20.38
2018-08-30T12:57:04.725Z,20.67
2018-08-30T12:58:04.570Z,23.25
2018-08-30T12:59:04.818Z,24.59
2018-08-30T13:00:05.050Z,25.84
2018-08-30T13:01:04.889Z,28.23
2018-08-30T13:02:04.321Z,26.22
2018-08-30T13:03:04.858Z,28.13
2018-08-30T13:04:04.999Z,33.11
2018-08-30T13:05:04.324Z,35.02
2018-08-30T13:06:05.563Z,33.2
2018-08-30T13:07:05.021Z,30.62
2018-08-30T13:08:04.205Z,28.42
2018-08-30T13:09:05.499Z,26.22
2018-08-30T13:10:04.387Z,24.69
2018-08-30T13:11:05.298Z,24.02
2018-08-30T13:12:05.548Z,23.25
2018-08-30T13:13:05.100Z,22.87
2018-08-30T13:14:04.983Z,24.98
2018-08-30T13:15:05.432Z,27.94
2018-08-30T13:16:04.936Z,28.31
2018-08-30T13:17:04.221Z,29.76
2018-08-30T13:18:04.895Z,30.51
2018-08-30T13:19:04.816Z,28.88
2018-08-30T13:20:05.179Z,26.11
2018-08-30T13:21:05.038Z,26.01
2018-08-30T13:22:05.306Z,25.35
2018-08-30T13:23:05.138Z,24.68
2018-08-30T13:24:04.384Z,24.58
2018-08-30T13:25:05.620Z,23.33
2018-08-30T13:26:04.330Z,24.87
2018-08-30T13:27:05.371Z,23.14
2018-08-30T13:28:05.029Z,22.19
2018-08-30T13:29:05.225Z,22.96
2018-08-30T13:30:05.359Z,22.28
2018-08-30T13:31:04.395Z,21.04
2018-08-30T13:32:05.567Z,19.7
2018-08-30T13:33:05.690Z,19.6
2018-08-30T13:34:05.662Z,22.67
2018-08-30T13:35:04.508Z,24.68
2018-08-30T13:36:05.245Z,26.21
2018-08-30T13:37:05.740Z,31.18
2018-08-30T13:38:05.617Z,30.61
2018-08-30T13:39:05.512Z,34.14
2018-08-30T13:40:05.700Z,35.86
2018-08-30T13:41:05.810Z,35.86
2018-08-30T13:42:05.974Z,34.93
2018-08-30T13:43:05.685Z,33.78
2018-08-30T13:44:05.275Z,34.36
2018-08-30T13:45:04.494Z,31.58
2018-08-30T13:46:05.528Z,31.01
2018-08-30T13:47:05.619Z,35.12
2018-08-30T13:48:05.431Z,40.48
2018-08-30T13:49:05.544Z,40.38
2018-08-30T13:50:05.125Z,40.98
2018-08-30T13:51:05.294Z,42.13
2018-08-30T13:52:05.316Z,41.94
2018-08-30T13:53:05.411Z,49.4
2018-08-30T13:54:05.778Z,51.03
2018-08-30T13:55:05.688Z,53.42
2018-08-30T13:56:05.262Z,54.32
2018-08-30T13:57:04.416Z,54.03